createdAt,value
2023-10-18T00:00:38.654Z,6.44
2023-10-18T00:01:29.499Z,6.46
2023-10-18T00:02:20.325Z,6.44
2023-10-18T00:03:11.154Z,6.41
2023-10-18T00:04:02.085Z,6.41
2023-10-18T00:04:52.918Z,6.40
2023-10-18T00:05:43.685Z,6.40
2023-10-18T00:06:34.546Z,6.40
2023-10-18T00:07:25.270Z,6.38
2023-10-18T00:08:16.074Z,6.36
2023-10-18T00:09:06.858Z,6.36
2023-10-18T00:09:57.753Z,6.35
2023-10-18T00:10:48.499Z,6.33
2023-10-18T00:11:39.317Z,6.33
2023-10-18T00:12:30.079Z,6.32
2023-10-18T00:13:20.868Z,6.33
2023-10-18T00:14:11.663Z,6.33
2023-10-18T00:15:02.449Z,6.35
2023-10-18T00:15:53.274Z,6.33
2023-10-18T00:16:44.030Z,6.33
2023-10-18T00:17:34.944Z,6.33
2023-10-18T00:18:25.816Z,6.35
2023-10-18T00:19:16.748Z,6.35
2023-10-18T00:20:07.510Z,6.40
2023-10-18T00:20:58.294Z,6.40
2023-10-18T00:21:49.100Z,6.43
2023-10-18T00:22:39.880Z,6.43
2023-10-18T00:23:30.668Z,6.44
2023-10-18T00:24:21.441Z,6.48
2023-10-18T00:25:12.313Z,6.46
2023-10-18T00:26:03.147Z,6.48
2023-10-18T00:26:53.964Z,6.48
2023-10-18T00:27:44.766Z,6.48
2023-10-18T00:28:35.513Z,6.47
2023-10-18T00:29:26.296Z,6.47
2023-10-18T00:30:17.098Z,6.47
2023-10-18T00:31:07.986Z,6.47
2023-10-18T00:31:58.793Z,6.47
2023-10-18T00:32:49.554Z,6.48
2023-10-18T00:33:40.394Z,6.48
2023-10-18T00:34:31.138Z,6.48
2023-10-18T00:35:23.290Z,6.47
2023-10-18T00:36:13.034Z,6.44
2023-10-18T00:37:03.854Z,6.44
2023-10-18T00:37:54.607Z,6.43
2023-10-18T00:38:46.004Z,6.41
2023-10-18T00:39:36.100Z,6.41
2023-10-18T00:40:26.867Z,6.40
2023-10-18T00:41:17.753Z,6.36
2023-10-18T00:42:08.554Z,6.35
2023-10-18T00:42:59.405Z,6.33
2023-10-18T00:43:50.270Z,6.32
2023-10-18T00:44:41.019Z,6.30
2023-10-18T00:45:31.808Z,6.30
2023-10-18T00:46:22.682Z,6.29
2023-10-18T00:47:13.535Z,6.29
2023-10-18T00:48:04.345Z,6.29
2023-10-18T00:48:55.116Z,6.28
2023-10-18T00:49:45.864Z,6.28
2023-10-18T00:50:36.648Z,6.29
2023-10-18T00:51:27.433Z,6.25
2023-10-18T00:52:18.282Z,6.26
2023-10-18T00:53:09.018Z,6.26
2023-10-18T00:53:59.799Z,6.26
2023-10-18T00:54:50.596Z,6.26
2023-10-18T00:55:41.400Z,6.26
2023-10-18T00:56:32.191Z,6.28
2023-10-18T00:57:29.374Z,6.26
2023-10-18T00:58:15.023Z,6.29
2023-10-18T00:59:05.130Z,6.28
2023-10-18T00:59:55.915Z,6.28
2023-10-18T01:00:46.827Z,6.28
2023-10-18T01:01:37.635Z,6.29
2023-10-18T01:02:28.629Z,6.26
2023-10-18T01:03:19.569Z,6.26
2023-10-18T01:04:10.453Z,6.22
2023-10-18T01:05:01.248Z,6.21
2023-10-18T01:05:52.004Z,6.18
2023-10-18T01:06:42.858Z,6.18
2023-10-18T01:07:33.768Z,6.16
2023-10-18T01:08:25.545Z,6.11
2023-10-18T01:09:15.621Z,6.13
2023-10-18T01:10:06.404Z,6.09
2023-10-18T01:10:57.188Z,6.09
2023-10-18T01:11:47.979Z,6.04
2023-10-18T01:12:39.072Z,6.03
2023-10-18T01:13:29.794Z,6.03
2023-10-18T01:14:20.583Z,6.01
2023-10-18T01:15:11.366Z,6.00
2023-10-18T01:16:02.205Z,6.00
2023-10-18T01:16:53.050Z,5.98
2023-10-18T01:17:43.834Z,5.98
2023-10-18T01:18:34.661Z,5.98
2023-10-18T01:19:25.440Z,5.98
2023-10-18T01:20:16.229Z,6.01
2023-10-18T01:21:07.010Z,6.03
2023-10-18T01:21:57.926Z,6.04
2023-10-18T01:22:48.680Z,6.04
2023-10-18T01:23:39.467Z,6.04
2023-10-18T01:24:30.247Z,6.03
2023-10-18T01:25:21.026Z,6.04
2023-10-18T01:26:11.809Z,6.03
2023-10-18T01:27:02.587Z,6.01
2023-10-18T01:27:53.467Z,6.04
2023-10-18T01:28:44.202Z,6.04
2023-10-18T01:29:34.988Z,6.06
2023-10-18T01:30:26.064Z,6.03
2023-10-18T01:31:17.052Z,6.04
2023-10-18T01:32:07.935Z,6.04
2023-10-18T01:32:58.739Z,6.04
2023-10-18T01:33:49.662Z,6.04
2023-10-18T01:34:40.409Z,6.04
2023-10-18T01:35:31.202Z,6.04
2023-10-18T01:36:21.999Z,6.04
2023-10-18T01:37:12.826Z,6.03
2023-10-18T01:38:03.569Z,6.03
2023-10-18T01:38:54.573Z,6.00
2023-10-18T01:39:45.336Z,6.00
2023-10-18T01:40:36.088Z,5.98
2023-10-18T01:41:27.286Z,6.00
2023-10-18T01:42:17.828Z,5.98
2023-10-18T01:43:08.648Z,5.96
2023-10-18T01:43:59.478Z,5.95
2023-10-18T01:44:50.231Z,5.92
2023-10-18T01:45:41.060Z,5.93
2023-10-18T01:46:31.835Z,5.92
2023-10-18T01:47:22.626Z,5.92
2023-10-18T01:48:13.497Z,5.91
2023-10-18T01:49:04.257Z,5.91
2023-10-18T01:49:55.077Z,5.89
2023-10-18T01:50:45.824Z,5.88
2023-10-18T01:51:36.679Z,5.88
2023-10-18T01:52:27.464Z,5.86
2023-10-18T01:53:18.250Z,5.86
2023-10-18T01:54:09.036Z,5.89
2023-10-18T01:54:59.855Z,5.86
2023-10-18T01:55:50.607Z,5.88
2023-10-18T01:56:42.445Z,5.89
2023-10-18T01:57:32.140Z,5.86
2023-10-18T01:58:22.957Z,5.88
2023-10-18T01:59:13.714Z,5.88
2023-10-18T02:00:04.507Z,5.89
2023-10-18T02:00:55.344Z,5.88
2023-10-18T02:01:46.134Z,5.86
2023-10-18T02:02:37.014Z,5.85
2023-10-18T02:03:27.900Z,5.86
2023-10-18T02:04:18.673Z,5.86
2023-10-18T02:05:09.524Z,5.83
2023-10-18T02:06:00.438Z,5.85
2023-10-18T02:06:51.281Z,5.85
2023-10-18T02:07:42.016Z,5.86
2023-10-18T02:08:32.810Z,5.86
2023-10-18T02:09:23.593Z,5.86
2023-10-18T02:10:14.474Z,5.88
2023-10-18T02:11:05.216Z,5.86
2023-10-18T02:11:56.021Z,5.88
2023-10-18T02:12:46.830Z,5.86
2023-10-18T02:13:37.722Z,5.86
2023-10-18T02:14:28.579Z,5.85
2023-10-18T02:15:19.361Z,5.85
2023-10-18T02:16:10.174Z,5.83
2023-10-18T02:17:01.011Z,5.82
2023-10-18T02:17:51.836Z,5.82
2023-10-18T02:18:42.865Z,5.82
2023-10-18T02:19:33.791Z,5.82
2023-10-18T02:20:24.522Z,5.81
2023-10-18T02:21:15.332Z,5.81
2023-10-18T02:22:06.127Z,5.82
2023-10-18T02:22:56.881Z,5.81
2023-10-18T02:23:47.945Z,5.82
2023-10-18T02:24:38.739Z,5.82
2023-10-18T02:25:29.479Z,5.81
2023-10-18T02:26:20.263Z,5.81
2023-10-18T02:27:11.097Z,5.77
2023-10-18T02:28:01.944Z,5.75
2023-10-18T02:28:52.696Z,5.74
2023-10-18T02:29:43.454Z,5.73
2023-10-18T02:30:34.244Z,5.70
2023-10-18T02:31:25.084Z,5.68
2023-10-18T02:32:15.836Z,5.68
2023-10-18T02:33:06.707Z,5.66
2023-10-18T02:33:57.602Z,5.66
2023-10-18T02:34:48.370Z,5.66
2023-10-18T02:35:39.162Z,5.66
2023-10-18T02:36:29.943Z,5.64
2023-10-18T02:37:20.807Z,5.60
2023-10-18T02:38:11.528Z,5.63
2023-10-18T02:39:02.324Z,5.60
2023-10-18T02:40:04.468Z,5.60
2023-10-18T02:40:45.181Z,5.59
2023-10-18T02:41:35.289Z,5.57
2023-10-18T02:42:26.100Z,5.59
2023-10-18T02:43:16.896Z,5.57
2023-10-18T02:44:07.691Z,5.59
2023-10-18T02:44:58.438Z,5.59
2023-10-18T02:45:49.256Z,5.59
2023-10-18T02:46:40.208Z,5.59
2023-10-18T02:47:31.385Z,5.60
2023-10-18T02:48:22.218Z,5.60
2023-10-18T02:49:13.014Z,5.63
2023-10-18T02:50:03.822Z,5.59
2023-10-18T02:50:54.605Z,5.63
2023-10-18T02:51:45.372Z,5.64
2023-10-18T02:52:36.151Z,5.64
2023-10-18T02:53:26.943Z,5.64
2023-10-18T02:54:17.730Z,5.67
2023-10-18T02:55:08.540Z,5.67
2023-10-18T02:55:59.325Z,5.68
2023-10-18T02:56:50.116Z,5.70
2023-10-18T02:57:40.939Z,5.71
2023-10-18T02:58:31.753Z,5.71
2023-10-18T02:59:22.533Z,5.70
2023-10-18T03:00:13.303Z,5.70
2023-10-18T03:01:04.267Z,5.71
2023-10-18T03:01:55.112Z,5.74
2023-10-18T03:02:45.942Z,5.74
2023-10-18T03:03:36.704Z,5.75
2023-10-18T03:04:27.547Z,5.77
2023-10-18T03:05:18.380Z,5.77
2023-10-18T03:06:09.158Z,5.78
2023-10-18T03:07:00.003Z,5.81
2023-10-18T03:07:50.737Z,5.81
2023-10-18T03:08:41.523Z,5.82
2023-10-18T03:09:32.530Z,5.82
2023-10-18T03:10:23.403Z,5.82
2023-10-18T03:11:14.185Z,5.85
2023-10-18T03:12:04.999Z,5.83
2023-10-18T03:12:55.876Z,5.83
2023-10-18T03:13:46.606Z,5.81
2023-10-18T03:14:37.427Z,5.83
2023-10-18T03:15:28.177Z,5.81
2023-10-18T03:16:19.032Z,5.82
2023-10-18T03:17:09.902Z,5.81
2023-10-18T03:18:00.714Z,5.78
2023-10-18T03:18:51.487Z,5.78
2023-10-18T03:19:42.247Z,5.77
2023-10-18T03:20:33.041Z,5.77
2023-10-18T03:21:23.828Z,5.78
2023-10-18T03:22:14.661Z,5.74
2023-10-18T03:23:05.443Z,5.74
2023-10-18T03:23:56.239Z,5.71
2023-10-18T03:24:47.028Z,5.71
2023-10-18T03:25:37.798Z,5.71
2023-10-18T03:26:28.580Z,5.71
2023-10-18T03:27:19.449Z,5.71
2023-10-18T03:28:10.261Z,5.71
2023-10-18T03:29:01.048Z,5.71
2023-10-18T03:29:51.845Z,5.71
2023-10-18T03:30:42.668Z,5.71
2023-10-18T03:31:33.521Z,5.71
2023-10-18T03:32:24.391Z,5.71
2023-10-18T03:33:15.178Z,5.71
2023-10-18T03:34:05.977Z,5.71
2023-10-18T03:34:56.728Z,5.71
2023-10-18T03:35:47.524Z,5.73
2023-10-18T03:36:38.307Z,5.71
2023-10-18T03:37:29.116Z,5.70
2023-10-18T03:38:20.137Z,5.71
2023-10-18T03:39:10.935Z,5.68
2023-10-18T03:40:01.755Z,5.70
2023-10-18T03:40:52.511Z,5.68
2023-10-18T03:41:43.305Z,5.67
2023-10-18T03:42:34.087Z,5.66
2023-10-18T03:43:24.832Z,5.64
2023-10-18T03:44:15.598Z,5.64
2023-10-18T03:45:06.392Z,5.63
2023-10-18T03:45:57.188Z,5.60
2023-10-18T03:46:48.030Z,5.64
2023-10-18T03:47:38.900Z,5.63
2023-10-18T03:48:29.656Z,5.63
2023-10-18T03:49:20.473Z,5.63
2023-10-18T03:50:11.202Z,5.63
2023-10-18T03:51:01.996Z,5.63
2023-10-18T03:51:52.768Z,5.60
2023-10-18T03:52:43.500Z,5.59
2023-10-18T03:53:34.256Z,5.57
2023-10-18T03:54:25.077Z,5.59
2023-10-18T03:55:15.811Z,5.57
2023-10-18T03:56:06.537Z,5.57
2023-10-18T03:56:57.296Z,5.57
2023-10-18T03:57:48.088Z,5.53
2023-10-18T03:58:38.833Z,5.55
2023-10-18T03:59:29.769Z,5.50
2023-10-18T04:00:20.580Z,5.49
2023-10-18T04:01:11.436Z,5.49
2023-10-18T04:02:02.197Z,5.49
2023-10-18T04:02:53.012Z,5.46
2023-10-18T04:03:43.856Z,5.46
2023-10-18T04:04:34.703Z,5.48
2023-10-18T04:05:25.487Z,5.48
2023-10-18T04:06:16.254Z,5.46
2023-10-18T04:07:07.081Z,5.46
2023-10-18T04:07:57.862Z,5.46
2023-10-18T04:08:48.632Z,5.49
2023-10-18T04:09:39.388Z,5.48
2023-10-18T04:10:30.149Z,5.48
2023-10-18T04:11:21.160Z,5.46
2023-10-18T04:12:11.915Z,5.46
2023-10-18T04:13:02.708Z,5.46
2023-10-18T04:13:53.442Z,5.46
2023-10-18T04:14:44.207Z,5.46
2023-10-18T04:15:35.013Z,5.45
2023-10-18T04:16:25.774Z,5.45
2023-10-18T04:17:16.502Z,5.46
2023-10-18T04:18:07.319Z,5.46
2023-10-18T04:18:58.174Z,5.48
2023-10-18T04:19:49.009Z,5.48
2023-10-18T04:20:39.741Z,5.48
2023-10-18T04:21:30.509Z,5.48
2023-10-18T04:22:21.296Z,5.49
2023-10-18T04:23:12.039Z,5.46
2023-10-18T04:24:02.798Z,5.46
2023-10-18T04:24:53.597Z,5.45
2023-10-18T04:25:44.323Z,5.45
2023-10-18T04:26:35.092Z,5.43
2023-10-18T04:27:25.868Z,5.43
2023-10-18T04:28:16.683Z,5.45
2023-10-18T04:29:07.386Z,5.41
2023-10-18T04:29:58.152Z,5.38
2023-10-18T04:30:48.952Z,5.38
2023-10-18T04:31:39.856Z,5.37
2023-10-18T04:32:30.606Z,5.37
2023-10-18T04:33:21.433Z,5.35
2023-10-18T04:34:12.281Z,5.32
2023-10-18T04:35:03.024Z,5.32
2023-10-18T04:35:53.795Z,5.31
2023-10-18T04:36:44.696Z,5.28
2023-10-18T04:37:35.418Z,5.30
2023-10-18T04:38:26.191Z,5.28
2023-10-18T04:39:16.952Z,5.30
2023-10-18T04:40:07.800Z,5.27
2023-10-18T04:40:58.513Z,5.27
2023-10-18T04:41:49.273Z,5.30
2023-10-18T04:42:40.301Z,5.28
2023-10-18T04:43:31.058Z,5.27
2023-10-18T04:44:21.813Z,5.27
2023-10-18T04:45:12.567Z,5.25
2023-10-18T04:46:03.624Z,5.30
2023-10-18T04:46:54.564Z,5.28
2023-10-18T04:47:45.457Z,5.28
2023-10-18T04:48:36.208Z,5.30
2023-10-18T04:49:27.034Z,5.30
2023-10-18T04:50:17.760Z,5.28
2023-10-18T04:51:08.530Z,5.30
2023-10-18T04:51:59.315Z,5.28
2023-10-18T04:52:50.043Z,5.28
2023-10-18T04:53:40.810Z,5.25
2023-10-18T04:54:31.578Z,5.25
2023-10-18T04:55:22.391Z,5.25
2023-10-18T04:56:13.102Z,5.23
2023-10-18T04:57:03.861Z,5.25
2023-10-18T04:57:54.665Z,5.23
2023-10-18T04:58:45.392Z,5.25
2023-10-18T04:59:37.877Z,5.22
2023-10-18T05:00:26.839Z,5.25
2023-10-18T05:01:17.723Z,5.25
2023-10-18T05:02:08.526Z,5.23
2023-10-18T05:02:59.302Z,5.23
2023-10-18T05:03:50.121Z,5.27
2023-10-18T05:04:40.883Z,5.25
2023-10-18T05:05:31.616Z,5.27
2023-10-18T05:06:22.358Z,5.30
2023-10-18T05:07:13.182Z,5.28
2023-10-18T05:08:03.887Z,5.31
2023-10-18T05:08:54.676Z,5.30
2023-10-18T05:09:46.364Z,5.31
2023-10-18T05:10:36.307Z,5.32
2023-10-18T05:11:27.109Z,5.34
2023-10-18T05:12:18.168Z,5.32
2023-10-18T05:13:08.969Z,5.34
2023-10-18T05:13:59.681Z,5.34
2023-10-18T05:14:53.785Z,5.32
2023-10-18T05:15:41.697Z,5.34
2023-10-18T05:16:32.540Z,5.32
2023-10-18T05:17:23.534Z,5.32
2023-10-18T05:18:14.241Z,5.31
2023-10-18T05:19:05.178Z,5.31
2023-10-18T05:19:56.039Z,5.30
2023-10-18T05:20:46.922Z,5.31
2023-10-18T05:21:37.777Z,5.31
2023-10-18T05:22:29.099Z,5.30
2023-10-18T05:23:19.890Z,5.31
2023-10-18T05:24:11.019Z,5.31
2023-10-18T05:25:02.406Z,5.32
2023-10-18T05:25:53.236Z,5.31
2023-10-18T05:26:46.307Z,5.32
2023-10-18T05:27:35.123Z,5.34
2023-10-18T05:28:25.994Z,5.34
2023-10-18T05:29:16.846Z,5.35
2023-10-18T05:30:07.716Z,5.34
2023-10-18T05:30:58.693Z,5.35
2023-10-18T05:31:49.590Z,5.37
2023-10-18T05:32:49.461Z,5.37
2023-10-18T05:33:32.381Z,5.40
2023-10-18T05:34:22.036Z,5.41
2023-10-18T05:35:13.581Z,5.41
2023-10-18T05:36:03.835Z,5.43
2023-10-18T05:36:54.720Z,5.43
2023-10-18T05:37:45.585Z,5.45
2023-10-18T05:38:36.455Z,5.43
2023-10-18T05:39:27.352Z,5.43
2023-10-18T05:40:18.254Z,5.45
2023-10-18T05:41:09.065Z,5.43
2023-10-18T05:41:59.934Z,5.45
2023-10-18T05:42:50.882Z,5.43
2023-10-18T05:43:41.714Z,5.43
2023-10-18T05:44:32.595Z,5.41
2023-10-18T05:45:23.479Z,5.41
2023-10-18T05:46:14.541Z,5.40
2023-10-18T05:47:05.446Z,5.41
2023-10-18T05:47:56.354Z,5.43
2023-10-18T05:48:47.250Z,5.43
2023-10-18T05:49:38.157Z,5.41
2023-10-18T05:50:29.531Z,5.40
2023-10-18T05:51:31.002Z,5.41
2023-10-18T05:52:11.764Z,5.38
2023-10-18T05:53:01.402Z,5.40
2023-10-18T05:53:52.280Z,5.38
2023-10-18T05:54:43.189Z,5.38
2023-10-18T05:55:34.057Z,5.37
2023-10-18T05:56:24.948Z,5.37
2023-10-18T05:57:15.817Z,5.35
2023-10-18T05:58:06.769Z,5.34
2023-10-18T05:58:57.612Z,5.32
2023-10-18T05:59:48.503Z,5.31
2023-10-18T06:00:39.374Z,5.31
2023-10-18T06:01:30.355Z,5.30
2023-10-18T06:02:21.373Z,5.30
2023-10-18T06:03:13.438Z,5.28
2023-10-18T06:04:03.226Z,5.27
2023-10-18T06:04:54.109Z,5.28
2023-10-18T06:05:44.972Z,5.28
2023-10-18T06:06:35.848Z,5.27
2023-10-18T06:07:26.785Z,5.28
2023-10-18T06:08:17.652Z,5.28
2023-10-18T06:09:08.548Z,5.27
2023-10-18T06:09:59.725Z,5.27
2023-10-18T06:10:50.345Z,5.27
2023-10-18T06:11:41.247Z,5.30
2023-10-18T06:12:32.194Z,5.28
2023-10-18T06:13:23.114Z,5.30
2023-10-18T06:14:13.971Z,5.27
2023-10-18T06:15:04.871Z,5.28
2023-10-18T06:15:55.818Z,5.28
2023-10-18T06:16:46.755Z,5.27
2023-10-18T06:17:37.672Z,5.27
2023-10-18T06:18:28.547Z,5.25
2023-10-18T06:19:19.493Z,5.23
2023-10-18T06:20:10.368Z,5.22
2023-10-18T06:21:01.269Z,5.19
2023-10-18T06:21:52.190Z,5.17
2023-10-18T06:22:43.082Z,5.16
2023-10-18T06:23:34.040Z,5.16
2023-10-18T06:24:24.917Z,5.14
2023-10-18T06:25:15.855Z,5.16
2023-10-18T06:26:06.739Z,5.13
2023-10-18T06:26:57.663Z,5.14
2023-10-18T06:27:48.584Z,5.16
2023-10-18T06:28:39.483Z,5.17
2023-10-18T06:29:30.599Z,5.22
2023-10-18T06:30:21.561Z,5.23
2023-10-18T06:31:12.585Z,5.25
2023-10-18T06:32:03.520Z,5.25
2023-10-18T06:32:54.554Z,5.31
2023-10-18T06:33:45.518Z,5.34
2023-10-18T06:34:36.375Z,5.35
2023-10-18T06:35:27.288Z,5.38
2023-10-18T06:36:18.197Z,5.43
2023-10-18T06:37:09.142Z,5.46
2023-10-18T06:38:00.028Z,5.50
2023-10-18T06:38:50.943Z,5.52
2023-10-18T06:39:41.855Z,5.55
2023-10-18T06:40:32.782Z,5.56
2023-10-18T06:41:23.682Z,5.63
2023-10-18T06:42:14.609Z,5.64
2023-10-18T06:43:05.567Z,5.67
2023-10-18T06:43:56.501Z,5.70
2023-10-18T06:44:47.401Z,5.74
2023-10-18T06:45:38.316Z,5.77
2023-10-18T06:46:30.117Z,5.78
2023-10-18T06:47:19.870Z,5.83
2023-10-18T06:48:10.806Z,5.85
2023-10-18T06:49:10.838Z,5.88
2023-10-18T06:50:01.093Z,5.89
2023-10-18T06:50:44.306Z,5.91
2023-10-18T06:51:34.086Z,5.92
2023-10-18T06:52:24.988Z,5.95
2023-10-18T06:53:15.922Z,6.00
2023-10-18T06:54:06.823Z,6.04
2023-10-18T06:54:57.762Z,6.04
2023-10-18T06:55:48.637Z,6.07
2023-10-18T06:56:39.559Z,6.10
2023-10-18T06:57:30.471Z,6.10
2023-10-18T06:58:21.447Z,6.14
2023-10-18T06:59:12.355Z,6.16
2023-10-18T07:00:03.280Z,6.16
2023-10-18T07:00:54.264Z,6.19
2023-10-18T07:01:45.320Z,6.21
2023-10-18T07:02:36.268Z,6.22
2023-10-18T07:03:27.192Z,6.28
2023-10-18T07:04:18.093Z,6.29
2023-10-18T07:05:08.976Z,6.32
2023-10-18T07:05:59.913Z,6.35
2023-10-18T07:06:50.931Z,6.38
2023-10-18T07:07:41.830Z,6.41
2023-10-18T07:08:32.754Z,6.43
2023-10-18T07:09:23.666Z,6.46
2023-10-18T07:10:14.629Z,6.47
2023-10-18T07:11:19.083Z,6.48
2023-10-18T07:11:57.411Z,6.51
2023-10-18T07:12:47.153Z,6.56
2023-10-18T07:13:38.026Z,6.58
2023-10-18T07:14:28.935Z,6.59
2023-10-18T07:15:19.866Z,6.63
2023-10-18T07:16:10.896Z,6.66
2023-10-18T07:17:01.929Z,6.71
2023-10-18T07:17:52.891Z,6.73
2023-10-18T07:18:43.794Z,6.77
2023-10-18T07:19:35.155Z,6.80
2023-10-18T07:20:25.554Z,6.83
2023-10-18T07:21:16.451Z,6.87
2023-10-18T07:22:07.520Z,6.89
2023-10-18T07:22:58.548Z,6.94
2023-10-18T07:23:49.461Z,6.98
2023-10-18T07:24:40.366Z,7.01
2023-10-18T07:25:31.332Z,7.02
2023-10-18T07:26:22.173Z,7.07
2023-10-18T07:27:13.083Z,7.08
2023-10-18T07:28:04.018Z,7.12
2023-10-18T07:28:54.921Z,7.15
2023-10-18T07:29:45.829Z,7.19
2023-10-18T07:30:36.745Z,7.23
2023-10-18T07:31:27.774Z,7.27
2023-10-18T07:32:18.788Z,7.31
2023-10-18T07:33:12.265Z,7.31
2023-10-18T07:34:00.900Z,7.35
2023-10-18T07:34:51.765Z,7.40
2023-10-18T07:35:42.673Z,7.44
2023-10-18T07:36:33.580Z,7.45
2023-10-18T07:37:24.587Z,7.49
2023-10-18T07:38:17.206Z,7.53
2023-10-18T07:39:06.493Z,7.56
2023-10-18T07:39:57.447Z,7.59
2023-10-18T07:40:48.350Z,7.62
2023-10-18T07:41:39.261Z,7.67
2023-10-18T07:42:30.173Z,7.71
2023-10-18T07:43:21.155Z,7.72
2023-10-18T07:44:12.015Z,7.77
2023-10-18T07:45:02.907Z,7.79
2023-10-18T07:45:53.880Z,7.84
2023-10-18T07:46:44.740Z,7.87
2023-10-18T07:47:35.704Z,7.92
2023-10-18T07:48:26.607Z,7.94
2023-10-18T07:49:17.629Z,7.97
2023-10-18T07:50:08.497Z,7.99
2023-10-18T07:50:59.431Z,8.04
2023-10-18T07:51:50.773Z,8.10
2023-10-18T07:52:41.412Z,8.15
2023-10-18T07:53:32.380Z,8.18
2023-10-18T07:54:23.271Z,8.25
2023-10-18T07:55:14.216Z,8.28
2023-10-18T07:56:05.125Z,8.33
2023-10-18T07:56:56.043Z,8.37
2023-10-18T07:57:46.971Z,8.44
2023-10-18T07:58:37.903Z,8.48
2023-10-18T07:59:29.082Z,8.51
2023-10-18T08:00:19.797Z,8.57
2023-10-18T08:01:11.036Z,8.65
2023-10-18T08:02:01.572Z,8.71
2023-10-18T08:02:52.581Z,8.76
2023-10-18T08:03:43.623Z,8.81
2023-10-18T08:04:35.046Z,8.90
2023-10-18T08:05:25.655Z,8.97
2023-10-18T08:06:16.621Z,9.12
2023-10-18T08:07:07.551Z,9.21
2023-10-18T08:07:58.500Z,9.34
2023-10-18T08:08:49.417Z,9.50
2023-10-18T08:09:40.401Z,9.81
2023-10-18T08:10:31.357Z,10.30
2023-10-18T08:11:22.311Z,11.21
2023-10-18T08:12:13.278Z,12.63
2023-10-18T08:13:04.300Z,14.31
2023-10-18T08:13:55.219Z,15.56
2023-10-18T08:14:46.193Z,16.83
2023-10-18T08:15:37.212Z,18.25
2023-10-18T08:16:36.232Z,19.61
2023-10-18T08:17:19.266Z,20.91
2023-10-18T08:18:10.262Z,21.99
2023-10-18T08:19:01.447Z,23.01
2023-10-18T08:19:52.440Z,23.92
2023-10-18T08:20:43.350Z,24.75
2023-10-18T08:21:34.313Z,25.47
2023-10-18T08:22:25.315Z,26.24
2023-10-18T08:23:16.248Z,26.80
2023-10-18T08:24:07.198Z,27.36
2023-10-18T08:24:58.226Z,27.91
2023-10-18T08:25:49.177Z,28.47
2023-10-18T08:26:40.107Z,29.06
2023-10-18T08:27:31.088Z,29.57
2023-10-18T08:28:22.078Z,30.16
2023-10-18T08:29:13.055Z,30.71
2023-10-18T08:30:04.030Z,31.13
2023-10-18T08:30:55.033Z,31.53
2023-10-18T08:31:46.058Z,31.85
2023-10-18T08:32:37.071Z,32.18
2023-10-18T08:33:28.039Z,32.32
2023-10-18T08:34:19.008Z,32.52
2023-10-18T08:35:09.968Z,32.71
2023-10-18T08:36:00.914Z,32.92
2023-10-18T08:36:51.888Z,33.13
2023-10-18T08:37:42.851Z,33.33
2023-10-18T08:38:33.800Z,33.49
2023-10-18T08:39:24.762Z,33.76
2023-10-18T08:40:15.783Z,34.04
2023-10-18T08:41:06.671Z,34.31
2023-10-18T08:41:58.120Z,34.57
2023-10-18T08:42:48.471Z,34.83
2023-10-18T08:43:39.462Z,35.07
2023-10-18T08:44:30.791Z,35.35
2023-10-18T08:45:21.405Z,35.66
2023-10-18T08:46:12.446Z,35.97
2023-10-18T08:47:03.450Z,36.23
2023-10-18T08:47:54.398Z,36.42
2023-10-18T08:48:45.338Z,36.45
2023-10-18T08:49:36.292Z,36.56
2023-10-18T08:50:27.384Z,36.73
2023-10-18T08:51:18.273Z,36.95
2023-10-18T08:52:09.236Z,37.16
2023-10-18T08:53:00.201Z,37.41
2023-10-18T08:53:51.169Z,37.61
2023-10-18T08:54:42.134Z,37.77
2023-10-18T08:55:33.173Z,37.99
2023-10-18T08:56:24.140Z,38.18
2023-10-18T08:57:15.095Z,38.20
2023-10-18T08:58:06.103Z,38.23
2023-10-18T08:58:57.008Z,38.27
2023-10-18T08:59:47.989Z,38.32
2023-10-18T09:00:38.925Z,38.42
2023-10-18T09:01:29.930Z,38.68
2023-10-18T09:02:20.918Z,39.10
2023-10-18T09:03:12.003Z,39.81
2023-10-18T09:04:03.085Z,40.59
2023-10-18T09:04:55.769Z,41.37
2023-10-18T09:05:45.046Z,42.09
2023-10-18T09:06:35.948Z,42.41
2023-10-18T09:07:26.980Z,42.72
2023-10-18T09:08:17.920Z,42.84
2023-10-18T09:09:08.891Z,42.78
2023-10-18T09:09:59.843Z,42.58
2023-10-18T09:10:50.826Z,42.51
2023-10-18T09:11:41.833Z,42.49
2023-10-18T09:12:32.804Z,42.60
2023-10-18T09:13:23.801Z,42.54
2023-10-18T09:14:14.779Z,42.29
2023-10-18T09:15:05.716Z,42.00
2023-10-18T09:16:00.364Z,41.77
2023-10-18T09:16:48.703Z,41.66
2023-10-18T09:17:38.591Z,41.50
2023-10-18T09:18:29.567Z,41.15
2023-10-18T09:19:20.556Z,40.72
2023-10-18T09:20:11.505Z,40.24
2023-10-18T09:21:02.475Z,39.93
2023-10-18T09:21:53.479Z,39.65
2023-10-18T09:22:44.388Z,39.39
2023-10-18T09:23:35.403Z,39.10
2023-10-18T09:24:26.332Z,38.79
2023-10-18T09:25:17.304Z,38.51
2023-10-18T09:26:08.251Z,38.11
2023-10-18T09:26:59.211Z,37.74
2023-10-18T09:27:50.183Z,37.54
2023-10-18T09:28:41.131Z,37.41
2023-10-18T09:29:32.071Z,37.09
2023-10-18T09:30:23.024Z,36.77
2023-10-18T09:31:14.129Z,36.52
2023-10-18T09:32:05.294Z,36.20
2023-10-18T09:32:56.243Z,35.88
2023-10-18T09:33:47.184Z,35.66
2023-10-18T09:34:38.155Z,35.29
2023-10-18T09:35:29.075Z,34.89
2023-10-18T09:36:20.022Z,34.61
2023-10-18T09:37:11.000Z,34.38
2023-10-18T09:38:01.956Z,34.23
2023-10-18T09:38:52.889Z,33.98
2023-10-18T09:39:43.875Z,33.78
2023-10-18T09:40:34.765Z,33.49
2023-10-18T09:41:25.704Z,33.11
2023-10-18T09:42:16.670Z,32.62
2023-10-18T09:43:07.637Z,32.24
2023-10-18T09:43:58.530Z,31.93
2023-10-18T09:44:49.468Z,31.48
2023-10-18T09:45:40.408Z,30.99
2023-10-18T09:46:31.471Z,30.54
2023-10-18T09:47:22.418Z,30.09
2023-10-18T09:48:13.379Z,29.70
2023-10-18T09:49:04.385Z,29.29
2023-10-18T09:49:55.277Z,28.90
2023-10-18T09:50:46.204Z,28.48
2023-10-18T09:51:37.171Z,28.07
2023-10-18T09:52:28.128Z,27.69
2023-10-18T09:53:19.001Z,27.23
2023-10-18T09:54:09.943Z,26.84
2023-10-18T09:55:01.007Z,26.39
2023-10-18T09:55:51.944Z,26.02
2023-10-18T09:56:42.863Z,25.64
2023-10-18T09:57:33.798Z,25.20
2023-10-18T09:58:24.827Z,24.90
2023-10-18T09:59:15.738Z,24.47
2023-10-18T10:00:06.680Z,24.08
2023-10-18T10:00:57.678Z,23.76
2023-10-18T10:01:48.708Z,23.39
2023-10-18T10:02:39.704Z,23.09
2023-10-18T10:03:30.708Z,22.80
2023-10-18T10:04:21.637Z,22.50
2023-10-18T10:05:12.533Z,22.20
2023-10-18T10:06:03.485Z,21.95
2023-10-18T10:06:54.685Z,21.69
2023-10-18T10:07:48.204Z,21.38
2023-10-18T10:08:35.918Z,21.13
2023-10-18T10:09:26.855Z,20.93
2023-10-18T10:10:17.859Z,20.79
2023-10-18T10:11:08.780Z,20.64
2023-10-18T10:11:59.730Z,20.54
2023-10-18T10:12:50.653Z,20.50
2023-10-18T10:13:41.589Z,20.43
2023-10-18T10:14:32.605Z,20.38
2023-10-18T10:15:23.517Z,20.35
2023-10-18T10:16:15.139Z,20.31
2023-10-18T10:17:05.505Z,20.27
2023-10-18T10:17:56.622Z,20.24
2023-10-18T10:18:47.641Z,20.21
2023-10-18T10:19:38.728Z,20.18
2023-10-18T10:20:29.709Z,20.13
2023-10-18T10:21:20.630Z,20.09
2023-10-18T10:22:11.875Z,20.06
2023-10-18T10:23:02.753Z,20.02
2023-10-18T10:23:53.698Z,20.00
2023-10-18T10:24:45.593Z,19.98
2023-10-18T10:26:03.399Z,19.97
2023-10-18T10:27:18.151Z,20.00
2023-10-18T10:28:07.904Z,19.98
2023-10-18T10:28:58.812Z,20.02
2023-10-18T10:29:49.744Z,20.02
2023-10-18T10:30:40.689Z,19.95
2023-10-18T10:31:31.824Z,19.90
2023-10-18T10:32:22.753Z,19.78
2023-10-18T10:33:13.753Z,19.70
2023-10-18T10:34:04.663Z,19.66
2023-10-18T10:34:55.602Z,19.66
2023-10-18T10:35:46.559Z,19.66
2023-10-18T10:36:37.471Z,19.61
2023-10-18T10:37:28.451Z,19.57
2023-10-18T10:37:36.398Z,20.00
2023-10-18T10:38:19.376Z,19.53
2023-10-18T10:39:10.300Z,19.50
2023-10-18T10:40:01.262Z,19.47
2023-10-18T10:40:52.173Z,19.48
2023-10-18T10:41:43.098Z,19.48
2023-10-18T10:42:34.050Z,19.50
2023-10-18T10:43:25.025Z,19.53
2023-10-18T10:44:15.947Z,19.53
2023-10-18T10:45:08.222Z,19.57
2023-10-18T10:45:57.844Z,19.60
2023-10-18T10:46:48.837Z,19.61
2023-10-18T10:47:39.764Z,19.68
2023-10-18T10:48:30.718Z,19.70
2023-10-18T10:49:21.658Z,19.65
2023-10-18T10:50:12.588Z,19.65
2023-10-18T10:51:03.498Z,19.61
2023-10-18T10:51:54.473Z,19.65
2023-10-18T10:52:45.416Z,19.63
2023-10-18T10:53:36.333Z,19.61
2023-10-18T10:54:27.286Z,19.63
2023-10-18T10:55:18.305Z,19.66
2023-10-18T10:56:09.183Z,19.68
2023-10-18T10:57:00.122Z,19.68
2023-10-18T10:57:51.066Z,19.66
2023-10-18T10:58:41.985Z,19.61
2023-10-18T10:59:32.921Z,19.60
2023-10-18T11:00:23.923Z,19.60
2023-10-18T11:01:14.877Z,19.63
2023-10-18T11:02:05.838Z,19.61
2023-10-18T11:02:57.575Z,19.65
2023-10-18T11:03:47.871Z,19.65
2023-10-18T11:04:38.819Z,19.65
2023-10-18T11:05:29.734Z,19.68
2023-10-18T11:06:20.657Z,19.72
2023-10-18T11:07:11.688Z,19.73
2023-10-18T11:08:02.697Z,19.73
2023-10-18T11:08:53.603Z,19.78
2023-10-18T11:09:44.511Z,19.79
2023-10-18T11:10:35.497Z,19.88
2023-10-18T11:11:26.414Z,19.90